createdAt,value
2023-03-08T00:00:27.246Z,94563.94
2023-03-08T00:02:29.938Z,94542.78
2023-03-08T00:04:32.688Z,94562.69
2023-03-08T00:06:35.894Z,94544.50
2023-03-08T00:08:40.094Z,94572.50
2023-03-08T00:10:42.823Z,94560.13
2023-03-08T00:12:45.563Z,94565.56
2023-03-08T00:14:48.632Z,94520.09
2023-03-08T00:16:51.332Z,94553.31
2023-03-08T00:18:54.187Z,94551.38
2023-03-08T00:21:01.078Z,94505.13
2023-03-08T00:23:03.933Z,94552.72
2023-03-08T00:25:10.429Z,94560.53
2023-03-08T00:27:13.150Z,94564.00
2023-03-08T00:29:16.168Z,94548.34
2023-03-08T00:31:18.987Z,94578.84
2023-03-08T00:33:21.696Z,94567.22
2023-03-08T00:35:24.443Z,94573.56
2023-03-08T00:37:27.182Z,94545.09
2023-03-08T00:39:29.878Z,94555.47
2023-03-08T00:41:35.162Z,94540.00
2023-03-08T00:43:38.375Z,94438.50
2023-03-08T00:45:41.102Z,94532.88
2023-03-08T00:47:43.803Z,94510.53
2023-03-08T00:49:46.615Z,94494.91
2023-03-08T00:51:50.779Z,94564.00
2023-03-08T00:53:53.678Z,94541.75
2023-03-08T00:55:59.790Z,94546.59
2023-03-08T00:58:06.841Z,94540.81
2023-03-08T01:00:12.854Z,94487.31
2023-03-08T01:02:15.939Z,94541.44
2023-03-08T01:04:18.734Z,94540.75
2023-03-08T01:06:21.534Z,94539.63
2023-03-08T01:08:26.473Z,94529.13
2023-03-08T01:10:29.129Z,94526.47
2023-03-08T01:12:33.056Z,94501.97
2023-03-08T01:14:38.497Z,94527.53
2023-03-08T01:16:42.857Z,94532.25
2023-03-08T01:18:45.580Z,94525.56
2023-03-08T01:20:56.525Z,94522.34
2023-03-08T01:22:59.659Z,94435.53
2023-03-08T01:25:02.464Z,94487.34
2023-03-08T01:27:05.287Z,94503.56
2023-03-08T01:29:08.263Z,94499.97
2023-03-08T01:31:23.120Z,94504.81
2023-03-08T01:33:27.715Z,94506.56
2023-03-08T01:35:30.657Z,94492.25
2023-03-08T01:37:34.305Z,94501.59
2023-03-08T01:39:37.140Z,94479.59
2023-03-08T01:41:40.038Z,94442.66
2023-03-08T01:43:43.286Z,94469.56
2023-03-08T01:46:06.763Z,94478.78
2023-03-08T01:48:12.427Z,94475.56
2023-03-08T01:50:40.970Z,94434.56
2023-03-08T01:52:47.716Z,94442.16
2023-03-08T01:54:54.323Z,94450.22
2023-03-08T01:57:02.590Z,94458.16
2023-03-08T01:59:05.622Z,94457.59
2023-03-08T02:01:11.431Z,94453.56
2023-03-08T02:03:15.712Z,94445.38
2023-03-08T02:05:20.466Z,94455.50
2023-03-08T02:07:26.769Z,94451.34
2023-03-08T02:09:30.045Z,94456.53
2023-03-08T02:11:37.479Z,94441.44
2023-03-08T02:13:40.880Z,94444.09
2023-03-08T02:15:44.243Z,94442.25
2023-03-08T02:17:47.798Z,94444.56
2023-03-08T02:19:56.994Z,94245.09
2023-03-08T02:21:59.862Z,94445.13
2023-03-08T02:24:08.055Z,94452.03
2023-03-08T02:26:10.805Z,94430.16
2023-03-08T02:28:13.616Z,94300.94
2023-03-08T02:30:23.902Z,94431.41
2023-03-08T02:32:26.846Z,94420.66
2023-03-08T02:34:29.666Z,94420.34
2023-03-08T02:36:34.080Z,94425.53
2023-03-08T02:38:36.963Z,94422.06
2023-03-08T02:40:41.572Z,94413.00
2023-03-08T02:42:45.290Z,94415.31
2023-03-08T02:44:48.081Z,94394.69
2023-03-08T02:46:53.407Z,94390.53
2023-03-08T02:48:56.182Z,94396.47
2023-03-08T02:50:58.925Z,94384.56
2023-03-08T02:53:01.728Z,94401.84
2023-03-08T02:55:04.912Z,94384.69
2023-03-08T02:57:09.413Z,94373.94
2023-03-08T02:59:13.845Z,94375.00
2023-03-08T03:01:18.285Z,94369.69
2023-03-08T03:03:21.016Z,94379.78
2023-03-08T03:05:26.907Z,94355.78
2023-03-08T03:07:29.972Z,94338.31
2023-03-08T03:09:32.974Z,94268.09
2023-03-08T03:11:35.771Z,94339.50
2023-03-08T03:13:39.955Z,94335.00
2023-03-08T03:15:43.079Z,94216.13
2023-03-08T03:17:45.954Z,94313.00
2023-03-08T03:19:48.687Z,94330.03
2023-03-08T03:21:51.480Z,94293.84
2023-03-08T03:23:55.661Z,94266.94
2023-03-08T03:26:06.962Z,94312.19
2023-03-08T03:28:10.541Z,94302.94
2023-03-08T03:30:15.543Z,94229.88
2023-03-08T03:32:19.645Z,94294.66
2023-03-08T03:34:22.598Z,94287.75
2023-03-08T03:36:26.555Z,94227.03
2023-03-08T03:38:29.707Z,94291.22
2023-03-08T03:40:32.490Z,94288.81
2023-03-08T03:42:38.127Z,94284.88
2023-03-08T03:44:46.172Z,94252.88
2023-03-08T03:46:54.131Z,94274.09
2023-03-08T03:49:00.838Z,94299.81
2023-03-08T03:51:12.600Z,94291.78
2023-03-08T03:53:19.292Z,94283.28
2023-03-08T03:55:22.164Z,94295.63
2023-03-08T03:57:26.507Z,94301.50
2023-03-08T03:59:29.725Z,94304.63
2023-03-08T04:01:33.767Z,94292.66
2023-03-08T04:03:45.028Z,94233.56
2023-03-08T04:05:47.990Z,94279.31
2023-03-08T04:07:51.402Z,94281.50
2023-03-08T04:09:55.919Z,94283.88
2023-03-08T04:12:02.507Z,94276.13
2023-03-08T04:14:07.162Z,94272.28
2023-03-08T04:16:11.490Z,94241.88
2023-03-08T04:18:14.414Z,94240.75
2023-03-08T04:20:21.777Z,94276.56
2023-03-08T04:22:30.682Z,94278.28
2023-03-08T04:24:41.970Z,94274.44
2023-03-08T04:26:50.117Z,94275.72
2023-03-08T04:28:55.341Z,94272.00
2023-03-08T04:31:01.483Z,94278.28
2023-03-08T04:33:04.670Z,94263.50
2023-03-08T04:35:16.467Z,94243.09
2023-03-08T04:37:23.514Z,94263.25
2023-03-08T04:39:30.590Z,94254.03
2023-03-08T04:41:33.698Z,94249.22
2023-03-08T04:43:47.896Z,94237.31
2023-03-08T04:45:52.118Z,94154.91
2023-03-08T04:47:54.939Z,94246.78
2023-03-08T04:49:58.349Z,94246.31
2023-03-08T04:52:01.488Z,94245.59
2023-03-08T04:54:06.748Z,94221.75
2023-03-08T04:56:15.111Z,94234.19
2023-03-08T04:58:19.245Z,94206.41
2023-03-08T05:00:23.543Z,94210.41
2023-03-08T05:02:27.189Z,94252.09
2023-03-08T05:04:29.990Z,94239.34
2023-03-08T05:06:32.762Z,94231.72
2023-03-08T05:08:35.558Z,94221.97
2023-03-08T05:10:39.751Z,94160.97
2023-03-08T05:12:43.190Z,94228.97
2023-03-08T05:14:45.941Z,94222.06
2023-03-08T05:16:48.690Z,94186.50
2023-03-08T05:18:51.911Z,94196.59
2023-03-08T05:20:59.363Z,94195.06
2023-03-08T05:23:03.058Z,94181.59
2023-03-08T05:25:12.651Z,94188.78
2023-03-08T05:27:16.910Z,94159.09
2023-03-08T05:29:21.178Z,94177.38
2023-03-08T05:31:24.185Z,94184.03
2023-03-08T05:33:29.171Z,94130.09
2023-03-08T05:35:31.988Z,94053.66
2023-03-08T05:37:34.779Z,94168.88
2023-03-08T05:39:40.060Z,94159.00
2023-03-08T05:41:51.451Z,94175.91
2023-03-08T05:44:03.383Z,93707.22
2023-03-08T05:46:11.785Z,94175.13
2023-03-08T05:48:14.956Z,94179.78
2023-03-08T05:50:18.036Z,94181.72
2023-03-08T05:52:22.562Z,94134.19
2023-03-08T05:54:26.047Z,94177.13
2023-03-08T05:56:32.344Z,94172.16
2023-03-08T05:58:46.664Z,94178.00
2023-03-08T06:00:52.211Z,94143.00
2023-03-08T06:02:55.170Z,94168.19
2023-03-08T06:04:58.048Z,94143.16
2023-03-08T06:07:02.285Z,94167.56
2023-03-08T06:09:10.964Z,94160.47
2023-03-08T06:11:17.200Z,94153.38
2023-03-08T06:13:23.201Z,94150.97
2023-03-08T06:15:26.103Z,94148.25
2023-03-08T06:17:30.738Z,94143.34
2023-03-08T06:19:35.272Z,94139.38
2023-03-08T06:21:38.030Z,94134.63
2023-03-08T06:23:41.412Z,94138.59
2023-03-08T06:25:45.282Z,94142.28
2023-03-08T06:27:48.309Z,94141.78
2023-03-08T06:30:03.221Z,94146.91
2023-03-08T06:32:08.607Z,94092.66
2023-03-08T06:34:14.110Z,94133.22
2023-03-08T06:36:19.235Z,94118.09
2023-03-08T06:38:22.641Z,94130.38
2023-03-08T06:40:25.433Z,94123.72
2023-03-08T06:42:40.223Z,94121.59
2023-03-08T06:44:44.193Z,94119.00
2023-03-08T06:46:46.959Z,94123.81
2023-03-08T06:48:50.855Z,94098.53
2023-03-08T06:50:55.375Z,94076.94
2023-03-08T06:52:58.108Z,94106.66
2023-03-08T06:55:14.748Z,94103.69
2023-03-08T06:57:17.940Z,94111.91
2023-03-08T06:59:20.694Z,94097.22
2023-03-08T07:01:23.539Z,94109.13
2023-03-08T07:03:27.005Z,94109.38
2023-03-08T07:05:29.979Z,94007.75
2023-03-08T07:07:35.585Z,94080.84
2023-03-08T07:09:38.405Z,94083.25
2023-03-08T07:11:41.638Z,94084.06
2023-03-08T07:13:44.415Z,94090.47
2023-03-08T07:15:47.171Z,94088.16
2023-03-08T07:17:52.600Z,94113.88
2023-03-08T07:19:55.369Z,94081.50
2023-03-08T07:21:58.217Z,94074.63
2023-03-08T07:24:02.301Z,94072.44
2023-03-08T07:26:06.706Z,94062.41
2023-03-08T07:28:09.453Z,94053.94
2023-03-08T07:30:13.901Z,94060.66
2023-03-08T07:32:16.788Z,94049.53
2023-03-08T07:34:19.616Z,94045.03
2023-03-08T07:36:22.503Z,94049.56
2023-03-08T07:38:25.275Z,94047.75
2023-03-08T07:40:29.480Z,94040.25
2023-03-08T07:42:32.532Z,94040.34
2023-03-08T07:44:46.644Z,94042.38
2023-03-08T07:46:49.401Z,94018.63
2023-03-08T07:48:55.287Z,93955.16
2023-03-08T07:51:03.020Z,94030.97
2023-03-08T07:53:07.759Z,94017.16
2023-03-08T07:55:11.909Z,94007.88
2023-03-08T07:57:16.898Z,93941.50
2023-03-08T07:59:19.902Z,93982.97
2023-03-08T08:01:22.692Z,93986.47
2023-03-08T08:03:25.732Z,93971.66
2023-03-08T08:05:28.643Z,93964.25
2023-03-08T08:07:32.340Z,93965.56
2023-03-08T08:09:37.381Z,93954.69
2023-03-08T08:11:40.130Z,93950.19
2023-03-08T08:13:46.583Z,93943.31
2023-03-08T08:15:59.225Z,93942.00
2023-03-08T08:18:02.264Z,93894.00
2023-03-08T08:20:06.790Z,93937.19
2023-03-08T08:22:09.544Z,93956.91
2023-03-08T08:24:12.284Z,93947.38
2023-03-08T08:26:17.158Z,93931.97
2023-03-08T08:28:19.885Z,93949.25
2023-03-08T08:30:24.012Z,93929.28
2023-03-08T08:32:27.281Z,93928.50
2023-03-08T08:34:30.051Z,93928.50
2023-03-08T08:36:32.858Z,93915.47
2023-03-08T08:38:36.379Z,93914.13
2023-03-08T08:40:39.171Z,93917.59
2023-03-08T08:42:41.894Z,93912.00
2023-03-08T08:44:44.634Z,93921.34
2023-03-08T08:46:48.747Z,93913.06
2023-03-08T08:48:51.491Z,93927.72
2023-03-08T08:50:54.978Z,93926.13
2023-03-08T08:52:57.830Z,93908.00
2023-03-08T08:55:01.687Z,93915.19
2023-03-08T08:57:04.524Z,93909.84
2023-03-08T08:59:07.224Z,93908.53
2023-03-08T09:01:17.941Z,93892.31
2023-03-08T09:03:22.026Z,93910.69
2023-03-08T09:05:24.853Z,93836.13
2023-03-08T09:07:27.633Z,93903.72
2023-03-08T09:09:30.329Z,93913.09
2023-03-08T09:11:39.733Z,93895.50
2023-03-08T09:13:47.778Z,93866.19
2023-03-08T09:15:50.508Z,93902.97
2023-03-08T09:17:53.456Z,93902.69
2023-03-08T09:19:57.544Z,93904.28
2023-03-08T09:22:00.241Z,93882.97
2023-03-08T09:24:05.563Z,93889.34
2023-03-08T09:26:08.293Z,93816.41
2023-03-08T09:28:12.308Z,93885.31
2023-03-08T09:30:17.343Z,93868.50
2023-03-08T09:32:20.138Z,93868.75
2023-03-08T09:34:22.936Z,93864.47
2023-03-08T09:36:28.510Z,93859.94
2023-03-08T09:38:31.243Z,93878.09
2023-03-08T09:40:40.419Z,93861.53
2023-03-08T09:42:45.112Z,93821.09
2023-03-08T09:45:02.460Z,93864.72
2023-03-08T09:47:14.236Z,93782.22
2023-03-08T09:49:21.742Z,93853.97
2023-03-08T09:51:28.280Z,93860.34
2023-03-08T09:53:38.345Z,93860.34
2023-03-08T09:55:46.783Z,93834.81
2023-03-08T09:57:53.576Z,93836.41
2023-03-08T09:59:58.626Z,93857.56
2023-03-08T10:02:05.886Z,93843.34
2023-03-08T10:04:40.592Z,93868.16
2023-03-08T10:06:50.959Z,93812.06
2023-03-08T10:09:02.712Z,93853.47
2023-03-08T10:11:08.229Z,93859.59
2023-03-08T10:13:32.999Z,93854.75
2023-03-08T10:15:41.181Z,93853.94
2023-03-08T10:17:50.174Z,93856.03
2023-03-08T10:19:58.002Z,93859.94
2023-03-08T10:22:08.058Z,93836.03
2023-03-08T10:24:17.201Z,93853.44
2023-03-08T10:26:20.620Z,93804.00
2023-03-08T10:28:26.339Z,93811.94
2023-03-08T10:30:34.731Z,93832.19
2023-03-08T10:32:43.887Z,93839.75
2023-03-08T10:34:47.054Z,93816.56
2023-03-08T10:36:52.550Z,93808.47
2023-03-08T10:39:04.898Z,93811.47
2023-03-08T10:41:16.049Z,93775.00
2023-03-08T10:43:26.454Z,93815.69
2023-03-08T10:45:30.782Z,93811.31
2023-03-08T10:47:35.517Z,93815.69
2023-03-08T10:49:38.207Z,93798.47
2023-03-08T10:51:40.863Z,93819.25
2023-03-08T10:53:54.416Z,93804.13
2023-03-08T10:55:58.531Z,93804.22
2023-03-08T10:58:03.731Z,93818.94
2023-03-08T11:00:22.128Z,93809.88
2023-03-08T11:02:25.214Z,93798.88
2023-03-08T11:04:29.521Z,93829.56
2023-03-08T11:06:35.104Z,93812.88
2023-03-08T11:08:39.868Z,93840.91
2023-03-08T11:10:42.677Z,93824.09
2023-03-08T11:12:46.022Z,93822.63
2023-03-08T11:14:50.686Z,93753.16
2023-03-08T11:17:03.085Z,93796.97
2023-03-08T11:19:22.461Z,93808.50
2023-03-08T11:21:33.317Z,93741.44
2023-03-08T11:23:42.137Z,93743.72
2023-03-08T11:25:47.509Z,93814.84
2023-03-08T11:28:08.199Z,93828.97
2023-03-08T11:30:23.927Z,93791.09
2023-03-08T11:32:44.665Z,93818.00
2023-03-08T11:34:59.967Z,93739.94
2023-03-08T11:37:10.872Z,93817.06
2023-03-08T11:39:19.842Z,93810.00
2023-03-08T11:41:28.922Z,93795.78
2023-03-08T11:43:49.265Z,93816.34
2023-03-08T11:45:58.870Z,93810.31
2023-03-08T11:48:16.192Z,93811.88
2023-03-08T11:50:23.096Z,93843.88
2023-03-08T11:52:36.124Z,93819.41
2023-03-08T11:55:02.061Z,93835.53
2023-03-08T11:57:08.858Z,93804.13
2023-03-08T11:59:18.870Z,93837.56
2023-03-08T12:01:26.729Z,93810.81
2023-03-08T12:03:34.999Z,93827.00
2023-03-08T12:05:41.997Z,93804.72
2023-03-08T12:07:48.738Z,93811.25
2023-03-08T12:09:57.566Z,93813.44
2023-03-08T12:12:05.184Z,93809.22
2023-03-08T12:14:18.025Z,93841.47
2023-03-08T12:16:27.205Z,93800.56
2023-03-08T12:18:38.450Z,93734.97
2023-03-08T12:20:44.123Z,93828.78
2023-03-08T12:22:51.972Z,93798.41
2023-03-08T12:25:00.208Z,93799.09
2023-03-08T12:27:08.196Z,93864.69
2023-03-08T12:29:17.336Z,93805.91
2023-03-08T12:31:29.509Z,93810.69
2023-03-08T12:33:33.988Z,93799.53
2023-03-08T12:35:38.493Z,93803.56
2023-03-08T12:37:41.318Z,93792.19
2023-03-08T12:39:44.069Z,93800.88
2023-03-08T12:41:58.628Z,93824.94
2023-03-08T12:44:04.696Z,93776.00
2023-03-08T12:46:09.678Z,93802.47
2023-03-08T12:48:22.875Z,93803.94
2023-03-08T12:50:26.204Z,93827.88
2023-03-08T12:52:34.779Z,93798.69
2023-03-08T12:54:37.573Z,93790.16
2023-03-08T12:56:52.486Z,93802.66
2023-03-08T12:58:57.027Z,93821.78
2023-03-08T13:01:02.641Z,93812.13
2023-03-08T13:03:08.141Z,93808.81
2023-03-08T13:05:31.779Z,93816.66
2023-03-08T13:07:39.508Z,93862.22
2023-03-08T13:09:51.277Z,93808.25
2023-03-08T13:12:02.831Z,93810.06
2023-03-08T13:14:06.071Z,93793.47
2023-03-08T13:16:30.199Z,93833.91
2023-03-08T13:18:33.215Z,93809.84
2023-03-08T13:20:55.662Z,93822.00
2023-03-08T13:23:03.912Z,93820.47
2023-03-08T13:25:17.040Z,93779.22
2023-03-08T13:27:26.960Z,93826.56
2023-03-08T13:29:31.882Z,93812.00
2023-03-08T13:31:34.712Z,93808.34
2023-03-08T13:33:40.131Z,93706.97
2023-03-08T13:35:44.398Z,93797.34
2023-03-08T13:37:54.311Z,93810.31
2023-03-08T13:39:59.851Z,93817.28
2023-03-08T13:42:11.008Z,93818.25
2023-03-08T13:44:17.298Z,93808.97
2023-03-08T13:46:21.020Z,93789.09
2023-03-08T13:48:27.227Z,93778.94
2023-03-08T13:50:32.388Z,93777.66
2023-03-08T13:52:39.482Z,93783.50
2023-03-08T13:54:46.735Z,93782.88
2023-03-08T13:56:54.068Z,93787.34
2023-03-08T13:58:59.582Z,93781.41
2023-03-08T14:01:05.836Z,93806.47
2023-03-08T14:03:08.670Z,93756.75
2023-03-08T14:05:18.751Z,93758.28
2023-03-08T14:07:25.180Z,93770.38
2023-03-08T14:09:29.465Z,93756.50
2023-03-08T14:11:34.482Z,93708.88
2023-03-08T14:13:39.503Z,93766.47
2023-03-08T14:15:50.206Z,93729.03
2023-03-08T14:17:53.197Z,93787.31
2023-03-08T14:19:58.032Z,93774.84
2023-03-08T14:22:02.874Z,93778.53
2023-03-08T14:24:06.939Z,93772.22
2023-03-08T14:28:41.917Z,93774.09
2023-03-08T14:30:48.950Z,93765.00
2023-03-08T14:33:06.084Z,93781.06
2023-03-08T14:35:17.844Z,93773.19
2023-03-08T14:37:25.930Z,93786.50
2023-03-08T14:39:30.961Z,93797.16
2023-03-08T14:41:37.255Z,93784.25
2023-03-08T14:43:41.369Z,93773.81
2023-03-08T14:45:54.122Z,93666.69
2023-03-08T14:47:59.086Z,93784.53
2023-03-08T14:50:04.119Z,93753.00
2023-03-08T14:52:09.382Z,93759.59
2023-03-08T14:54:29.467Z,93767.50
2023-03-08T14:56:33.467Z,93679.06
2023-03-08T14:58:40.064Z,93748.97
2023-03-08T15:00:51.807Z,93748.03
2023-03-08T15:02:54.806Z,93768.03
2023-03-08T15:04:57.528Z,93742.81
2023-03-08T15:07:00.274Z,93715.91
2023-03-08T15:09:05.064Z,93742.84
2023-03-08T15:11:08.445Z,93736.38
2023-03-08T15:13:14.675Z,93728.41
2023-03-08T15:15:17.554Z,93724.53
2023-03-08T15:17:22.607Z,93699.00
2023-03-08T15:19:25.523Z,93691.75
2023-03-08T15:21:29.908Z,93721.09
2023-03-08T15:23:36.149Z,93717.56
2023-03-08T15:25:39.496Z,93723.00
2023-03-08T15:27:42.279Z,93709.25
2023-03-08T15:29:44.983Z,93731.31
2023-03-08T15:31:47.722Z,93719.63
2023-03-08T15:33:51.784Z,93710.78
2023-03-08T15:35:54.614Z,93634.31
2023-03-08T15:37:57.422Z,93718.19
2023-03-08T15:40:00.160Z,93735.78
2023-03-08T15:42:02.888Z,93715.25
2023-03-08T15:44:05.609Z,93714.72
2023-03-08T15:46:11.575Z,93691.81
2023-03-08T15:48:18.020Z,93720.72
2023-03-08T15:50:22.091Z,93718.66
2023-03-08T15:52:30.221Z,93717.06
2023-03-08T15:54:33.522Z,93707.50
2023-03-08T15:56:36.309Z,93719.13
2023-03-08T15:58:39.054Z,93744.78
2023-03-08T16:00:41.771Z,93732.56
2023-03-08T16:02:44.556Z,93747.97
2023-03-08T16:04:48.977Z,93755.47
2023-03-08T16:06:53.074Z,93742.78
2023-03-08T16:08:55.840Z,93738.19
2023-03-08T16:11:03.709Z,93692.25
2023-03-08T16:13:06.544Z,93740.78
2023-03-08T16:15:10.777Z,93752.97
2023-03-08T16:17:16.180Z,93749.69
2023-03-08T16:19:19.335Z,93734.63
2023-03-08T16:21:22.051Z,93737.44
2023-03-08T16:23:26.653Z,93731.97
2023-03-08T16:25:29.436Z,93737.34
2023-03-08T16:27:34.513Z,93745.28
2023-03-08T16:29:38.244Z,93749.06
2023-03-08T16:31:41.075Z,93746.22
2023-03-08T16:33:43.844Z,93685.94
2023-03-08T16:35:50.255Z,93769.06
2023-03-08T16:37:54.122Z,93748.78
2023-03-08T16:40:01.886Z,93748.97
2023-03-08T16:42:04.776Z,93733.69
2023-03-08T16:44:08.181Z,93732.28
2023-03-08T16:46:16.139Z,93723.84
2023-03-08T16:48:19.024Z,93718.88
2023-03-08T16:50:21.753Z,93711.03
2023-03-08T16:52:24.479Z,93716.47
2023-03-08T16:54:27.241Z,93685.13
2023-03-08T16:56:31.520Z,93720.06
2023-03-08T16:58:34.298Z,93736.34
2023-03-08T17:00:37.077Z,93733.56
2023-03-08T17:02:40.484Z,93722.63
2023-03-08T17:04:43.327Z,93709.91
2023-03-08T17:06:46.343Z,93741.91
2023-03-08T17:08:49.911Z,93728.19
2023-03-08T17:10:52.604Z,93747.34
2023-03-08T17:12:56.649Z,93733.66
2023-03-08T17:14:59.387Z,93742.91
2023-03-08T17:17:02.165Z,93740.31
2023-03-08T17:19:06.390Z,93754.72
2023-03-08T17:21:09.696Z,93749.06
2023-03-08T17:23:13.502Z,93744.47
2023-03-08T17:25:16.394Z,93741.31
2023-03-08T17:27:19.143Z,93758.00
2023-03-08T17:29:23.759Z,93746.78
2023-03-08T17:31:26.467Z,93746.19
2023-03-08T17:33:29.364Z,93747.38
2023-03-08T17:35:32.177Z,93758.00
2023-03-08T17:37:41.714Z,93609.13
2023-03-08T17:39:44.580Z,93747.38
2023-03-08T17:41:47.601Z,93707.78
2023-03-08T17:43:50.737Z,93765.97
2023-03-08T17:46:02.220Z,93702.22
2023-03-08T17:48:05.288Z,93608.22
2023-03-08T17:50:09.859Z,93656.66
2023-03-08T17:52:12.592Z,93744.50
2023-03-08T17:54:15.385Z,93766.75
2023-03-08T17:56:21.286Z,93745.78
2023-03-08T17:58:24.374Z,93741.53
2023-03-08T18:00:27.130Z,93729.03
2023-03-08T18:02:31.198Z,93648.63
2023-03-08T18:04:33.973Z,93760.41
2023-03-08T18:06:39.070Z,93749.47
2023-03-08T18:08:41.879Z,93668.66
2023-03-08T18:10:44.702Z,93749.56
2023-03-08T18:12:47.773Z,93751.88
2023-03-08T18:14:52.667Z,93744.22
2023-03-08T18:16:55.423Z,93743.81
2023-03-08T18:18:59.482Z,93745.63
2023-03-08T18:21:12.620Z,93662.31
2023-03-08T18:23:17.282Z,93750.47
2023-03-08T18:25:20.481Z,93762.91
2023-03-08T18:27:23.207Z,93751.88
2023-03-08T18:29:26.042Z,93740.16
2023-03-08T18:31:31.006Z,93690.50
2023-03-08T18:33:33.738Z,93744.91
2023-03-08T18:35:37.845Z,93753.66
2023-03-08T18:37:40.553Z,93700.44
2023-03-08T18:39:43.264Z,93757.34
2023-03-08T18:41:46.032Z,93746.63
2023-03-08T18:43:48.959Z,93734.19
2023-03-08T18:45:52.558Z,93734.00
2023-03-08T18:47:55.203Z,93735.78
2023-03-08T18:49:57.840Z,93688.72
2023-03-08T18:52:01.867Z,93723.88
2023-03-08T18:54:05.426Z,93720.19
2023-03-08T18:56:08.644Z,93721.69
2023-03-08T18:58:11.707Z,93626.78
2023-03-08T19:00:15.610Z,93637.31
2023-03-08T19:02:18.536Z,93725.84
2023-03-08T19:04:21.551Z,93729.84
2023-03-08T19:06:24.211Z,93721.69
2023-03-08T19:08:29.182Z,93724.97
2023-03-08T19:10:33.300Z,93726.47
2023-03-08T19:12:37.911Z,93712.75
2023-03-08T19:14:40.796Z,93713.03
2023-03-08T19:16:43.753Z,93717.72
2023-03-08T19:18:46.716Z,93722.88
2023-03-08T19:20:49.426Z,93716.31
2023-03-08T19:22:52.206Z,93687.72
2023-03-08T19:24:56.342Z,93712.84
2023-03-08T19:27:03.152Z,93699.94
2023-03-08T19:29:08.586Z,93677.22
2023-03-08T19:31:17.581Z,93723.19
2023-03-08T19:33:30.549Z,93692.69
2023-03-08T19:35:35.245Z,93731.22
2023-03-08T19:37:38.157Z,93693.28
2023-03-08T19:39:43.577Z,93724.66
2023-03-08T19:41:50.697Z,93698.94
2023-03-08T19:43:53.351Z,93719.91
2023-03-08T19:45:56.677Z,93710.97
2023-03-08T19:47:59.329Z,93707.78
2023-03-08T19:50:01.964Z,93714.63
2023-03-08T19:52:06.742Z,93662.41
2023-03-08T19:54:10.308Z,93724.16
2023-03-08T19:56:16.119Z,93724.75
2023-03-08T19:58:21.335Z,93710.75
2023-03-08T20:00:24.499Z,93732.41
2023-03-08T20:02:28.209Z,93725.25
2023-03-08T20:04:31.028Z,93728.31
2023-03-08T20:06:36.368Z,93732.00
2023-03-08T20:08:40.420Z,93696.06
2023-03-08T20:10:43.335Z,93711.53
2023-03-08T20:12:47.079Z,93701.78
2023-03-08T20:14:51.199Z,93710.53
2023-03-08T20:16:53.947Z,93708.41
2023-03-08T20:18:57.451Z,93706.72
2023-03-08T20:21:02.160Z,93728.38
2023-03-08T20:23:05.063Z,93721.22
2023-03-08T20:25:11.420Z,93732.16
2023-03-08T20:27:14.157Z,93549.69
2023-03-08T20:29:17.453Z,93670.94
2023-03-08T20:31:21.516Z,93699.81
2023-03-08T20:33:24.241Z,93720.81
2023-03-08T20:35:27.024Z,93739.41
2023-03-08T20:37:29.809Z,93741.59
2023-03-08T20:39:32.576Z,93746.38
2023-03-08T20:41:35.383Z,93736.84
2023-03-08T20:43:38.748Z,93730.56
2023-03-08T20:45:41.731Z,93738.31
2023-03-08T20:47:46.597Z,93714.19
2023-03-08T20:49:49.733Z,93717.38
2023-03-08T20:51:52.508Z,93697.09
2023-03-08T20:53:55.783Z,93711.69
2023-03-08T20:55:58.839Z,93665.06
2023-03-08T20:58:01.669Z,93705.97
2023-03-08T21:00:06.862Z,93732.56
2023-03-08T21:02:12.223Z,93731.06
2023-03-08T21:04:16.718Z,93734.56
2023-03-08T21:06:21.806Z,93755.06
2023-03-08T21:08:25.140Z,93722.28
2023-03-08T21:10:28.020Z,93736.19
2023-03-08T21:12:30.804Z,93730.44
2023-03-08T21:14:33.544Z,93665.50
2023-03-08T21:16:36.385Z,93714.75
2023-03-08T21:18:39.219Z,93712.56
2023-03-08T21:20:44.895Z,93738.75
2023-03-08T21:22:47.839Z,93732.31
2023-03-08T21:24:50.592Z,93742.72
2023-03-08T21:26:53.856Z,93734.75
2023-03-08T21:28:58.776Z,93709.53
2023-03-08T21:31:01.524Z,93719.66
2023-03-08T21:33:04.267Z,93718.47
2023-03-08T21:35:07.778Z,93711.50
2023-03-08T21:37:11.884Z,93700.88
2023-03-08T21:39:14.889Z,93735.34
2023-03-08T21:41:18.733Z,93697.19
2023-03-08T21:43:21.410Z,93733.56
2023-03-08T21:45:24.133Z,93737.75
2023-03-08T21:47:26.946Z,93682.06
2023-03-08T21:49:35.023Z,93644.41
2023-03-08T21:51:38.407Z,93717.94
2023-03-08T21:53:43.141Z,93713.28
2023-03-08T21:55:45.834Z,93712.69
2023-03-08T21:57:48.834Z,93677.53
2023-03-08T21:59:51.796Z,93713.38
2023-03-08T22:01:58.366Z,93616.63
2023-03-08T22:04:02.868Z,93724.22
2023-03-08T22:06:05.792Z,93726.59
2023-03-08T22:08:08.528Z,93735.06
2023-03-08T22:10:14.775Z,93732.47
2023-03-08T22:12:17.935Z,93734.34
2023-03-08T22:14:20.662Z,93654.22
2023-03-08T22:16:24.008Z,93729.69
2023-03-08T22:18:26.762Z,93690.44
2023-03-08T22:20:29.446Z,93685.63
2023-03-08T22:22:32.189Z,93655.16
2023-03-08T22:24:34.932Z,93613.53
2023-03-08T22:26:39.050Z,93680.38
2023-03-08T22:28:41.803Z,93690.00
2023-03-08T22:30:44.537Z,93701.72
2023-03-08T22:32:47.970Z,93720.81
2023-03-08T22:34:50.982Z,93709.09
2023-03-08T22:36:54.354Z,93738.22
2023-03-08T22:38:57.097Z,93743.19
2023-03-08T22:40:59.868Z,93737.03
2023-03-08T22:43:03.904Z,93710.22
2023-03-08T22:45:07.866Z,93720.88
2023-03-08T22:47:10.609Z,93697.66
2023-03-08T22:49:14.907Z,93694.28
2023-03-08T22:51:21.260Z,93657.13
2023-03-08T22:53:24.034Z,93599.00
2023-03-08T22:55:26.895Z,93689.09
2023-03-08T22:57:29.605Z,93694.84
2023-03-08T22:59:33.701Z,93696.66
2023-03-08T23:01:36.659Z,93694.16
2023-03-08T23:03:40.420Z,93691.97
2023-03-08T23:05:43.157Z,93672.78
2023-03-08T23:07:46.504Z,93575.66
2023-03-08T23:09:49.323Z,93668.31
2023-03-08T23:11:52.063Z,93673.56
2023-03-08T23:13:54.840Z,93680.53
2023-03-08T23:15:59.006Z,93681.50
2023-03-08T23:18:01.805Z,93666.69
2023-03-08T23:20:06.640Z,93641.75
2023-03-08T23:22:09.409Z,93539.50
2023-03-08T23:24:12.890Z,93645.75
2023-03-08T23:26:17.861Z,93642.47
2023-03-08T23:28:20.820Z,93621.72
2023-03-08T23:30:23.845Z,93638.88
2023-03-08T23:32:28.018Z,93618.13
2023-03-08T23:34:30.841Z,93609.47
2023-03-08T23:36:34.876Z,93565.66
2023-03-08T23:38:37.743Z,93567.34
2023-03-08T23:40:40.641Z,93585.94
2023-03-08T23:42:43.400Z,93575.34
2023-03-08T23:44:46.186Z,93570.88
2023-03-08T23:46:48.969Z,93566.50
2023-03-08T23:48:57.701Z,93538.56
2023-03-08T23:51:00.542Z,93542.47
2023-03-08T23:53:03.250Z,93577.72
2023-03-08T23:55:07.006Z,93572.66
2023-03-08T23:57:09.801Z,93557.97
2023-03-08T23:59:15.823Z,93568.38
